YPPH/PER METAR and TAF weather

Enter ICAO airport designator
Station Type Date Time Source
YPPH METAR 2019/08/22 20:00 UTC NOAA

YPPH 222000Z 26005KT 9999 VCSH SCT044 BKN070 12/11 Q1017 FM2000 21010KT 9999 -SHRA SCT012 BKN020 INTER 2000/2300 5000 SHRA BKN016


Station Type Date Time Source
YPPH Decoded METAR 2019/08/22 20:00 UTC NOAA

Station name not available
Aug 22, 2019 - 04:00 PM EDT / 2019.08.22 2000 UTC
Wind: from the W (260 degrees) at 6 MPH (5 KT):0
Visibility: greater than 7 mile(s):0
Sky conditions: mostly cloudy
Weather: showers in the vicinity
Temperature: 53 F (12 C)
Dew Point: 51 F (11 C)
Relative Humidity: 93%
Pressure (altimeter): 30.03 in. Hg (1017 hPa)
ob: YPPH 222000Z 26005KT 9999 VCSH SCT044 BKN070 12/11 Q1017 FM2000 21010KT 9999 -SHRA SCT012 BKN020 INTER 2000/2300 5000 SHRA BKN016
cycle: 20

Station Type Date Time Source
YPPH TAF 2019/08/22 18:33 UTC NOAA

TAF YPPH 221708Z 2218/2324 22010KT 9999 -SHRA SCT012 BKN020
FM230100 20012KT 9999 -SHRA BKN030
FM231000 14005KT CAVOK INTER 2218/2303 5000 SHRA BKN018

Example: see airport list